sensor_id;sensor_type;location;lat;lon;timestamp;noise_LAeq;noise_LA_min;noise_LA_max;noise_LA01;noise_LA95
67318;Laerm;57664;51.436;5.980;2024-01-11T03:58:29;33.99;32.52;40.53;;
67318;Laerm;57664;51.436;5.980;2024-01-11T03:58:44;34.24;33.05;40.49;;
67318;Laerm;57664;51.436;5.980;2024-01-11T03:59:03;34.66;32.95;41.87;;
67318;Laerm;57664;51.436;5.980;2024-01-11T03:59:24;34.72;32.76;42.07;;
67318;Laerm;57664;51.436;5.980;2024-01-11T03:59:41;34.63;32.91;41.55;;
67318;Laerm;57664;51.436;5.980;2024-01-11T03:59:54;34.67;32.69;38.66;;
67318;Laerm;57664;51.436;5.980;2024-01-11T04:00:11;34.63;32.81;39.58;;
67318;Laerm;57664;51.436;5.980;2024-01-11T04:00:27;34.56;32.92;39.97;;
67318;Laerm;57664;51.436;5.980;2024-01-11T04:00:55;34.47;32.95;40.79;;
67318;Laerm;57664;51.436;5.980;2024-01-11T04:01:26;34.40;32.76;43.18;;
67318;Laerm;57664;51.436;5.980;2024-01-11T04:01:57;34.71;32.85;48.73;;
67318;Laerm;57664;51.436;5.980;2024-01-11T04:02:11;34.38;33.04;38.92;;
67318;Laerm;57664;51.436;5.980;2024-01-11T04:03:11;34.05;32.87;44.10;;
67318;Laerm;57664;51.436;5.980;2024-01-11T04:04:46;33.88;32.69;35.11;;
67318;Laerm;57664;51.436;5.980;2024-01-11T04:06:18;33.85;32.43;35.06;;
67318;Laerm;57664;51.436;5.980;2024-01-11T04:06:32;33.83;32.74;34.89;;
67318;Laerm;57664;51.436;5.980;2024-01-11T04:06:52;33.80;32.62;34.90;;
67318;Laerm;57664;51.436;5.980;2024-01-11T04:07:13;33.79;32.64;35.05;;
67318;Laerm;57664;51.436;5.980;2024-01-11T04:07:32;33.79;32.89;34.76;;
67318;Laerm;57664;51.436;5.980;2024-01-11T04:07:43;33.81;32.66;34.88;;
67318;Laerm;57664;51.436;5.980;2024-01-11T04:08:06;33.81;32.45;34.80;;
67318;Laerm;57664;51.436;5.980;2024-01-11T04:08:17;33.95;32.70;42.37;;
67318;Laerm;57664;51.436;5.980;2024-01-11T04:08:28;34.87;32.72;48.79;;
67318;Laerm;57664;51.436;5.980;2024-01-11T04:08:38;34.50;32.91;49.41;;
67318;Laerm;57664;51.436;5.980;2024-01-11T04:08:49;35.07;32.73;49.89;;
67318;Laerm;57664;51.436;5.980;2024-01-11T04:09:03;34.12;32.93;43.32;;
67318;Laerm;57664;51.436;5.980;2024-01-11T04:09:14;34.33;32.65;46.62;;
67318;Laerm;57664;51.436;5.980;2024-01-11T04:09:24;39.44;32.74;62.74;;
67318;Laerm;57664;51.436;5.980;2024-01-11T04:09:37;38.14;32.85;59.71;;
67318;Laerm;57664;51.436;5.980;2024-01-11T04:09:52;36.65;33.05;58.81;;
67318;Laerm;57664;51.436;5.980;2024-01-11T04:10:26;38.37;32.59;60.52;;
67318;Laerm;57664;51.436;5.980;2024-01-11T04:10:40;35.91;32.90;52.76;;
67318;Laerm;57664;51.436;5.980;2024-01-11T04:10:52;40.24;33.08;63.31;;
67318;Laerm;57664;51.436;5.980;2024-01-11T04:11:03;41.84;32.87;65.27;;
67318;Laerm;57664;51.436;5.980;2024-01-11T04:11:14;33.88;32.84;34.77;;
67318;Laerm;57664;51.436;5.980;2024-01-11T04:11:34;39.18;32.79;57.44;;
67318;Laerm;57664;51.436;5.980;2024-01-11T04:11:45;42.38;32.94;65.91;;
67318;Laerm;57664;51.436;5.980;2024-01-11T04:11:57;43.89;32.80;65.27;;
67318;Laerm;57664;51.436;5.980;2024-01-11T04:12:27;41.56;32.74;63.77;;
67318;Laerm;57664;51.436;5.980;2024-01-11T04:12:40;34.28;32.69;40.35;;
67318;Laerm;57664;51.436;5.980;2024-01-11T04:12:56;34.63;32.93;42.66;;
67318;Laerm;57664;51.436;5.980;2024-01-11T04:13:11;34.79;32.66;42.98;;
67318;Laerm;57664;51.436;5.980;2024-01-11T04:13:23;34.96;33.05;46.79;;
67318;Laerm;57664;51.436;5.980;2024-01-11T04:13:34;35.42;32.91;44.80;;
67318;Laerm;57664;51.436;5.980;2024-01-11T04:13:47;36.01;33.08;48.21;;
67318;Laerm;57664;51.436;5.980;2024-01-11T04:14:09;35.53;32.98;46.12;;
67318;Laerm;57664;51.436;5.980;2024-01-11T04:14:33;36.06;32.70;47.77;;
67318;Laerm;57664;51.436;5.980;2024-01-11T04:14:44;35.82;33.21;44.39;;
67318;Laerm;57664;51.436;5.980;2024-01-11T04:14:56;35.88;33.12;46.78;;
67318;Laerm;57664;51.436;5.980;2024-01-11T04:15:07;36.13;32.96;46.43;;
67318;Laerm;57664;51.436;5.980;2024-01-11T04:15:24;36.39;32.82;50.78;;
67318;Laerm;57664;51.436;5.980;2024-01-11T04:15:51;35.77;32.56;47.68;;
67318;Laerm;57664;51.436;5.980;2024-01-11T04:16:07;34.97;33.19;43.19;;
67318;Laerm;57664;51.436;5.980;2024-01-11T04:16:20;34.75;32.95;42.95;;
67318;Laerm;57664;51.436;5.980;2024-01-11T04:16:52;34.10;32.92;35.11;;
67318;Laerm;57664;51.436;5.980;2024-01-11T04:17:03;34.08;33.03;35.18;;
67318;Laerm;57664;51.436;5.980;2024-01-11T04:17:24;37.82;32.89;63.15;;
67318;Laerm;57664;51.436;5.980;2024-01-11T04:17:38;36.94;32.94;59.60;;
67318;Laerm;57664;51.436;5.980;2024-01-11T04:17:49;34.10;33.04;39.53;;
67318;Laerm;57664;51.436;5.980;2024-01-11T04:18:00;34.10;33.08;40.26;;
67318;Laerm;57664;51.436;5.980;2024-01-11T04:18:11;34.22;33.09;43.44;;
67318;Laerm;57664;51.436;5.980;2024-01-11T04:18:27;35.35;32.87;55.28;;
67318;Laerm;57664;51.436;5.980;2024-01-11T04:18:38;34.59;32.88;51.18;;
67318;Laerm;57664;51.436;5.980;2024-01-11T04:18:52;34.05;32.60;35.01;;
67318;Laerm;57664;51.436;5.980;2024-01-11T04:19:06;36.06;33.18;57.83;;
67318;Laerm;57664;51.436;5.980;2024-01-11T04:19:17;38.51;32.97;58.72;;
67318;Laerm;57664;51.436;5.980;2024-01-11T04:19:27;36.25;32.80;54.69;;
67318;Laerm;57664;51.436;5.980;2024-01-11T04:19:47;39.74;32.88;61.89;;
67318;Laerm;57664;51.436;5.980;2024-01-11T04:20:04;35.56;32.81;56.58;;
67318;Laerm;57664;51.436;5.980;2024-01-11T04:20:21;40.95;32.95;64.58;;
67318;Laerm;57664;51.436;5.980;2024-01-11T04:20:37;35.94;32.94;53.15;;
67318;Laerm;57664;51.436;5.980;2024-01-11T04:20:51;38.28;33.05;59.93;;
67318;Laerm;57664;51.436;5.980;2024-01-11T04:21:05;40.72;33.07;64.15;;
67318;Laerm;57664;51.436;5.980;2024-01-11T04:21:34;36.54;32.66;52.02;;
67318;Laerm;57664;51.436;5.980;2024-01-11T04:21:57;36.22;33.11;59.06;;
67318;Laerm;57664;51.436;5.980;2024-01-11T04:22:10;37.83;32.94;61.35;;
67318;Laerm;57664;51.436;5.980;2024-01-11T04:22:24;35.60;32.89;49.99;;
67318;Laerm;57664;51.436;5.980;2024-01-11T04:22:40;35.39;33.11;51.78;;
67318;Laerm;57664;51.436;5.980;2024-01-11T04:22:58;34.84;32.97;49.54;;
67318;Laerm;57664;51.436;5.980;2024-01-11T04:23:12;34.27;32.99;46.58;;
67318;Laerm;57664;51.436;5.980;2024-01-11T04:23:24;34.08;32.81;35.14;;
67318;Laerm;57664;51.436;5.980;2024-01-11T04:23:35;34.05;32.95;35.25;;
67318;Laerm;57664;51.436;5.980;2024-01-11T04:23:47;34.00;32.86;35.10;;
67318;Laerm;57664;51.436;5.980;2024-01-11T04:23:58;34.06;33.10;34.92;;
67318;Laerm;57664;51.436;5.980;2024-01-11T04:24:08;34.05;32.96;34.94;;
67318;Laerm;57664;51.436;5.980;2024-01-11T04:24:19;36.81;33.15;56.50;;
67318;Laerm;57664;51.436;5.980;2024-01-11T04:24:30;36.17;33.22;52.84;;
67318;Laerm;57664;51.436;5.980;2024-01-11T04:24:46;36.54;32.93;51.64;;
67318;Laerm;57664;51.436;5.980;2024-01-11T04:26:42;35.88;33.03;56.70;;
67318;Laerm;57664;51.436;5.980;2024-01-11T04:26:56;34.15;33.06;35.18;;
67318;Laerm;57664;51.436;5.980;2024-01-11T04:27:07;34.20;33.24;43.52;;
67318;Laerm;57664;51.436;5.980;2024-01-11T04:27:17;34.08;33.06;34.98;;
67318;Laerm;57664;51.436;5.980;2024-01-11T04:27:28;34.06;32.70;35.17;;
67318;Laerm;57664;51.436;5.980;2024-01-11T04:27:39;34.06;33.06;34.85;;
67318;Laerm;57664;51.436;5.980;2024-01-11T04:27:50;34.05;33.14;34.90;;
67318;Laerm;57664;51.436;5.980;2024-01-11T04:28:01;34.03;32.93;35.05;;
67318;Laerm;57664;51.436;5.980;2024-01-11T04:28:13;34.02;32.94;35.16;;
67318;Laerm;57664;51.436;5.980;2024-01-11T04:28:34;33.98;32.82;35.18;;
67318;Laerm;57664;51.436;5.980;2024-01-11T04:28:49;34.02;32.61;35.12;;
67318;Laerm;57664;51.436;5.980;2024-01-11T04:29:01;34.03;32.87;35.02;;
67318;Laerm;57664;51.436;5.980;2024-01-11T04:29:13;34.00;33.07;34.83;;
67318;Laerm;57664;51.436;5.980;2024-01-11T04:29:34;34.00;32.76;35.07;;
67318;Laerm;57664;51.436;5.980;2024-01-11T04:29:46;34.03;33.06;34.94;;
67318;Laerm;57664;51.436;5.980;2024-01-11T04:29:57;33.99;32.86;34.93;;
67318;Laerm;57664;51.436;5.980;2024-01-11T04:30:09;34.03;32.87;34.89;;
67318;Laerm;57664;51.436;5.980;2024-01-11T04:30:22;34.47;32.97;48.93;;
67318;Laerm;57664;51.436;5.980;2024-01-11T04:30:33;35.34;32.73;48.71;;
67318;Laerm;57664;51.436;5.980;2024-01-11T04:30:44;35.49;32.73;48.53;;
67318;Laerm;57664;51.436;5.980;2024-01-11T04:30:54;35.10;33.05;46.99;;
67318;Laerm;57664;51.436;5.980;2024-01-11T04:31:05;34.81;33.04;46.65;;
67318;Laerm;57664;51.436;5.980;2024-01-11T04:31:21;35.38;33.10;53.21;;
67318;Laerm;57664;51.436;5.980;2024-01-11T04:31:37;35.01;33.22;52.05;;
67318;Laerm;57664;51.436;5.980;2024-01-11T04:31:47;34.82;33.08;46.45;;
67318;Laerm;57664;51.436;5.980;2024-01-11T04:32:07;35.00;32.91;49.68;;
67318;Laerm;57664;51.436;5.980;2024-01-11T04:32:21;34.86;33.06;46.64;;
67318;Laerm;57664;51.436;5.980;2024-01-11T04:32:33;34.27;32.53;45.74;;
67318;Laerm;57664;51.436;5.980;2024-01-11T04:32:46;34.67;32.93;47.49;;
67318;Laerm;57664;51.436;5.980;2024-01-11T04:33:08;34.89;32.90;52.76;;
67318;Laerm;57664;51.436;5.980;2024-01-11T04:33:19;34.01;32.98;34.91;;
67318;Laerm;57664;51.436;5.980;2024-01-11T04:33:31;34.02;32.70;34.88;;
67318;Laerm;57664;51.436;5.980;2024-01-11T04:33:46;34.03;32.67;35.20;;
67318;Laerm;57664;51.436;5.980;2024-01-11T04:33:58;34.33;33.10;36.00;;
67318;Laerm;57664;51.436;5.980;2024-01-11T04:34:19;34.13;32.96;35.26;;
67318;Laerm;57664;51.436;5.980;2024-01-11T04:34:33;34.14;32.83;35.06;;
67318;Laerm;57664;51.436;5.980;2024-01-11T04:34:44;41.15;33.09;46.94;;
67318;Laerm;57664;51.436;5.980;2024-01-11T04:34:58;42.47;39.54;48.50;;
67318;Laerm;57664;51.436;5.980;2024-01-11T04:35:12;39.73;33.16;45.68;;
67318;Laerm;57664;51.436;5.980;2024-01-11T04:35:23;34.03;32.96;35.31;;
67318;Laerm;57664;51.436;5.980;2024-01-11T04:35:35;34.00;33.03;35.10;;
67318;Laerm;57664;51.436;5.980;2024-01-11T04:35:50;34.05;33.03;35.16;;
67318;Laerm;57664;51.436;5.980;2024-01-11T04:36:04;37.21;32.91;60.07;;
67318;Laerm;57664;51.436;5.980;2024-01-11T04:36:20;35.45;32.82;48.93;;
67318;Laerm;57664;51.436;5.980;2024-01-11T04:36:40;35.67;32.93;53.20;;
67318;Laerm;57664;51.436;5.980;2024-01-11T04:36:56;34.11;32.80;43.66;;
67318;Laerm;57664;51.436;5.980;2024-01-11T04:37:06;33.99;33.07;34.99;;
67318;Laerm;57664;51.436;5.980;2024-01-11T04:37:20;34.08;33.07;35.12;;
67318;Laerm;57664;51.436;5.980;2024-01-11T04:37:33;34.05;32.97;35.23;;
67318;Laerm;57664;51.436;5.980;2024-01-11T04:37:49;34.56;32.78;51.15;;
67318;Laerm;57664;51.436;5.980;2024-01-11T04:38:05;35.04;32.88;53.23;;
67318;Laerm;57664;51.436;5.980;2024-01-11T04:38:26;34.56;33.08;50.22;;
67318;Laerm;57664;51.436;5.980;2024-01-11T04:38:37;34.74;33.04;50.28;;
67318;Laerm;57664;51.436;5.980;2024-01-11T04:38:49;34.81;32.95;50.40;;
67318;Laerm;57664;51.436;5.980;2024-01-11T04:39:00;34.39;32.85;46.61;;
67318;Laerm;57664;51.436;5.980;2024-01-11T04:39:11;34.34;33.01;47.82;;
67318;Laerm;57664;51.436;5.980;2024-01-11T04:39:29;34.13;33.06;44.28;;
67318;Laerm;57664;51.436;5.980;2024-01-11T04:39:48;34.04;32.88;35.23;;
67318;Laerm;57664;51.436;5.980;2024-01-11T04:40:05;34.01;32.91;35.08;;
67318;Laerm;57664;51.436;5.980;2024-01-11T04:40:19;34.02;32.86;35.12;;
67318;Laerm;57664;51.436;5.980;2024-01-11T04:40:33;34.01;32.86;34.94;;
67318;Laerm;57664;51.436;5.980;2024-01-11T04:40:45;33.97;32.75;34.80;;
67318;Laerm;57664;51.436;5.980;2024-01-11T04:40:57;33.94;32.71;34.90;;
67318;Laerm;57664;51.436;5.980;2024-01-11T04:41:09;33.96;32.81;34.95;;
67318;Laerm;57664;51.436;5.980;2024-01-11T04:41:20;33.95;32.67;34.78;;
67318;Laerm;57664;51.436;5.980;2024-01-11T04:41:42;33.93;32.84;35.03;;
67318;Laerm;57664;51.436;5.980;2024-01-11T04:41:57;33.95;32.84;34.82;;
67318;Laerm;57664;51.436;5.980;2024-01-11T04:42:10;33.92;32.91;35.05;;
67318;Laerm;57664;51.436;5.980;2024-01-11T04:42:21;33.94;33.02;34.78;;
67318;Laerm;57664;51.436;5.980;2024-01-11T04:42:36;33.91;32.90;34.84;;
67318;Laerm;57664;51.436;5.980;2024-01-11T04:42:52;33.88;32.71;34.90;;
67318;Laerm;57664;51.436;5.980;2024-01-11T04:43:03;33.90;32.87;34.72;;
67318;Laerm;57664;51.436;5.980;2024-01-11T04:43:32;33.89;32.85;34.80;;
67318;Laerm;57664;51.436;5.980;2024-01-11T04:43:50;33.91;32.55;34.95;;
67318;Laerm;57664;51.436;5.980;2024-01-11T04:44:02;33.88;32.95;34.78;;
67318;Laerm;57664;51.436;5.980;2024-01-11T04:44:22;33.90;32.62;35.21;;
67318;Laerm;57664;51.436;5.980;2024-01-11T04:44:36;33.90;32.90;34.86;;
67318;Laerm;57664;51.436;5.980;2024-01-11T04:44:48;33.89;32.81;34.88;;
67318;Laerm;57664;51.436;5.980;2024-01-11T04:45:00;33.86;32.88;34.89;;
67318;Laerm;57664;51.436;5.980;2024-01-11T04:45:16;33.87;32.88;35.02;;
67318;Laerm;57664;51.436;5.980;2024-01-11T04:45:31;33.90;32.87;35.12;;
67318;Laerm;57664;51.436;5.980;2024-01-11T04:45:42;33.88;32.84;34.85;;
67318;Laerm;57664;51.436;5.980;2024-01-11T04:45:56;33.86;32.88;34.91;;
67318;Laerm;57664;51.436;5.980;2024-01-11T04:46:22;33.84;32.69;34.75;;
67318;Laerm;57664;51.436;5.980;2024-01-11T04:46:35;34.06;32.86;35.48;;
67318;Laerm;57664;51.436;5.980;2024-01-11T04:46:50;34.00;32.81;35.03;;
67318;Laerm;57664;51.436;5.980;2024-01-11T04:47:02;37.18;32.57;44.40;;
67318;Laerm;57664;51.436;5.980;2024-01-11T04:47:13;33.81;32.46;34.85;;
67318;Laerm;57664;51.436;5.980;2024-01-11T04:47:26;33.79;32.55;34.69;;
67318;Laerm;57664;51.436;5.980;2024-01-11T04:47:40;33.81;32.74;34.72;;
67318;Laerm;57664;51.436;5.980;2024-01-11T04:47:54;33.79;32.68;34.72;;
67318;Laerm;57664;51.436;5.980;2024-01-11T04:48:04;33.85;32.83;34.90;;
67318;Laerm;57664;51.436;5.980;2024-01-11T04:48:19;33.81;32.63;34.60;;
67318;Laerm;57664;51.436;5.980;2024-01-11T04:48:32;33.76;32.40;34.65;;
67318;Laerm;57664;51.436;5.980;2024-01-11T04:48:49;33.81;32.81;34.81;;
67318;Laerm;57664;51.436;5.980;2024-01-11T04:49:44;33.86;32.74;35.21;;
67318;Laerm;57664;51.436;5.980;2024-01-11T04:49:55;33.86;32.86;34.76;;
67318;Laerm;57664;51.436;5.980;2024-01-11T04:50:06;33.83;32.78;34.78;;
67318;Laerm;57664;51.436;5.980;2024-01-11T04:50:17;33.85;32.61;34.97;;
67318;Laerm;57664;51.436;5.980;2024-01-11T04:50:30;33.86;33.00;34.77;;
67318;Laerm;57664;51.436;5.980;2024-01-11T04:50:42;33.86;32.88;34.78;;
67318;Laerm;57664;51.436;5.980;2024-01-11T04:50:55;33.89;32.50;34.97;;
67318;Laerm;57664;51.436;5.980;2024-01-11T04:51:18;33.86;32.87;34.80;;
67318;Laerm;57664;51.436;5.980;2024-01-11T04:51:39;33.88;32.71;35.11;;
67318;Laerm;57664;51.436;5.980;2024-01-11T04:51:52;33.87;32.87;34.74;;
67318;Laerm;57664;51.436;5.980;2024-01-11T04:52:07;33.90;32.79;34.90;;
67318;Laerm;57664;51.436;5.980;2024-01-11T04:52:19;33.87;32.75;34.97;;
67318;Laerm;57664;51.436;5.980;2024-01-11T04:52:30;34.14;32.97;35.67;;
67318;Laerm;57664;51.436;5.980;2024-01-11T04:52:48;34.12;32.86;35.23;;
67318;Laerm;57664;51.436;5.980;2024-01-11T04:53:01;34.02;32.74;35.03;;
67318;Laerm;57664;51.436;5.980;2024-01-11T04:53:12;34.02;32.88;34.94;;
67318;Laerm;57664;51.436;5.980;2024-01-11T04:53:25;34.03;32.98;38.77;;
67318;Laerm;57664;51.436;5.980;2024-01-11T04:53:44;39.82;33.31;47.70;;
67318;Laerm;57664;51.436;5.980;2024-01-11T04:53:55;39.36;33.97;43.29;;
67318;Laerm;57664;51.436;5.980;2024-01-11T04:54:06;34.27;32.89;46.51;;
67318;Laerm;57664;51.436;5.980;2024-01-11T04:54:20;34.29;32.90;44.02;;
67318;Laerm;57664;51.436;5.980;2024-01-11T04:54:32;34.75;32.82;48.61;;
67318;Laerm;57664;51.436;5.980;2024-01-11T04:54:49;35.15;32.72;52.60;;
67318;Laerm;57664;51.436;5.980;2024-01-11T04:55:07;34.36;32.75;46.96;;
67318;Laerm;57664;51.436;5.980;2024-01-11T04:55:18;34.29;32.84;46.11;;
67318;Laerm;57664;51.436;5.980;2024-01-11T04:55:31;34.08;32.87;41.07;;
67318;Laerm;57664;51.436;5.980;2024-01-11T04:55:44;34.05;32.93;43.04;;
67318;Laerm;57664;51.436;5.980;2024-01-11T04:55:55;33.94;32.56;35.07;;
67318;Laerm;57664;51.436;5.980;2024-01-11T04:56:06;33.95;32.76;34.66;;
67318;Laerm;57664;51.436;5.980;2024-01-11T04:56:17;34.06;32.90;43.83;;
67318;Laerm;57664;51.436;5.980;2024-01-11T04:56:28;34.21;32.89;45.08;;
67318;Laerm;57664;51.436;5.980;2024-01-11T04:56:42;35.47;32.64;50.05;;
67318;Laerm;57664;51.436;5.980;2024-01-11T04:56:54;40.32;33.02;62.41;;
67318;Laerm;57664;51.436;5.980;2024-01-11T04:57:12;35.56;32.92;54.04;;
67318;Laerm;57664;51.436;5.980;2024-01-11T04:57:28;34.74;32.87;50.38;;
67318;Laerm;57664;51.436;5.980;2024-01-11T04:57:39;34.00;32.85;39.40;;
67318;Laerm;57664;51.436;5.980;2024-01-11T04:57:54;33.96;33.00;34.93;;
67318;Laerm;57664;51.436;5.980;2024-01-11T04:58:15;33.94;32.75;35.13;;
67318;Laerm;57664;51.436;5.980;2024-01-11T04:58:40;33.94;32.92;35.02;;
67318;Laerm;57664;51.436;5.980;2024-01-11T04:58:51;33.88;32.28;35.36;;
67318;Laerm;57664;51.436;5.980;2024-01-11T04:59:03;33.88;32.73;34.76;;
67318;Laerm;57664;51.436;5.980;2024-01-11T04:59:15;33.85;32.79;34.76;;
67318;Laerm;57664;51.436;5.980;2024-01-11T04:59:28;33.85;32.90;34.97;;
67318;Laerm;57664;51.436;5.980;2024-01-11T04:59:41;33.87;32.65;34.91;;
67318;Laerm;57664;51.436;5.980;2024-01-11T04:59:52;33.85;32.84;34.68;;
67318;Laerm;57664;51.436;5.980;2024-01-11T05:00:08;33.90;32.91;35.08;;
67318;Laerm;57664;51.436;5.980;2024-01-11T05:00:21;33.91;32.88;34.67;;
67318;Laerm;57664;51.436;5.980;2024-01-11T05:00:34;33.86;32.83;34.89;;
67318;Laerm;57664;51.436;5.980;2024-01-11T05:00:51;33.86;32.88;35.10;;
67318;Laerm;57664;51.436;5.980;2024-01-11T05:01:07;33.84;32.52;34.96;;
67318;Laerm;57664;51.436;5.980;2024-01-11T05:01:22;33.84;32.71;34.92;;
67318;Laerm;57664;51.436;5.980;2024-01-11T05:01:36;33.80;32.68;34.71;;
67318;Laerm;57664;51.436;5.980;2024-01-11T05:01:52;33.83;32.54;34.84;;
67318;Laerm;57664;51.436;5.980;2024-01-11T05:02:03;33.83;32.88;35.09;;
67318;Laerm;57664;51.436;5.980;2024-01-11T05:02:22;33.79;32.93;35.11;;
67318;Laerm;57664;51.436;5.980;2024-01-11T05:02:35;33.82;32.71;34.81;;
67318;Laerm;57664;51.436;5.980;2024-01-11T05:02:46;33.77;32.85;34.70;;
67318;Laerm;57664;51.436;5.980;2024-01-11T05:02:58;33.82;32.69;34.86;;
67318;Laerm;57664;51.436;5.980;2024-01-11T05:03:10;33.82;32.67;34.93;;
67318;Laerm;57664;51.436;5.980;2024-01-11T05:03:25;33.80;32.67;34.72;;
67318;Laerm;57664;51.436;5.980;2024-01-11T05:03:46;33.82;32.61;34.88;;
67318;Laerm;57664;51.436;5.980;2024-01-11T05:03:57;33.78;32.47;34.76;;
67318;Laerm;57664;51.436;5.980;2024-01-11T05:04:08;33.78;32.78;34.90;;
67318;Laerm;57664;51.436;5.980;2024-01-11T05:04:20;33.82;32.44;34.64;;
67318;Laerm;57664;51.436;5.980;2024-01-11T05:04:34;33.82;32.71;34.74;;
67318;Laerm;57664;51.436;5.980;2024-01-11T05:04:47;33.78;32.67;34.67;;
67318;Laerm;57664;51.436;5.980;2024-01-11T05:05:35;33.81;32.64;34.99;;
67318;Laerm;57664;51.436;5.980;2024-01-11T05:05:57;33.83;32.60;34.91;;
67318;Laerm;57664;51.436;5.980;2024-01-11T05:06:18;33.82;32.73;34.64;;
67318;Laerm;57664;51.436;5.980;2024-01-11T05:07:03;34.06;32.98;35.98;;
67318;Laerm;57664;51.436;5.980;2024-01-11T05:07:21;34.01;32.85;35.01;;
67318;Laerm;57664;51.436;5.980;2024-01-11T05:07:37;41.26;33.77;46.24;;
67318;Laerm;57664;51.436;5.980;2024-01-11T05:07:50;40.10;33.40;44.61;;
67318;Laerm;57664;51.436;5.980;2024-01-11T05:08:09;33.92;33.03;35.17;;
67318;Laerm;57664;51.436;5.980;2024-01-11T05:08:23;33.88;32.82;34.83;;
67318;Laerm;57664;51.436;5.980;2024-01-11T05:09:22;33.85;32.80;35.18;;
67318;Laerm;57664;51.436;5.980;2024-01-11T05:09:49;33.86;32.64;34.89;;
67318;Laerm;57664;51.436;5.980;2024-01-11T05:10:39;33.85;32.65;34.99;;
67318;Laerm;57664;51.436;5.980;2024-01-11T05:11:51;33.84;32.61;35.02;;
67318;Laerm;57664;51.436;5.980;2024-01-11T05:12:03;33.88;32.89;34.78;;
67318;Laerm;57664;51.436;5.980;2024-01-11T05:13:40;33.91;32.36;45.82;;
67318;Laerm;57664;51.436;5.980;2024-01-11T05:14:44;33.98;32.34;45.07;;
67318;Laerm;57664;51.436;5.980;2024-01-11T05:14:54;33.90;32.89;36.22;;
67318;Laerm;57664;51.436;5.980;2024-01-11T05:15:11;33.88;32.85;34.88;;
67318;Laerm;57664;51.436;5.980;2024-01-11T05:17:15;33.84;32.65;34.89;;
67318;Laerm;57664;51.436;5.980;2024-01-11T05:17:45;33.81;32.79;34.71;;
67318;Laerm;57664;51.436;5.980;2024-01-11T05:18:01;33.80;32.64;34.90;;
67318;Laerm;57664;51.436;5.980;2024-01-11T05:18:12;33.77;32.74;34.73;;
67318;Laerm;57664;51.436;5.980;2024-01-11T05:18:26;33.81;32.77;34.83;;
67318;Laerm;57664;51.436;5.980;2024-01-11T05:18:46;33.80;32.86;34.70;;
67318;Laerm;57664;51.436;5.980;2024-01-11T05:18:58;33.80;32.67;34.86;;
67318;Laerm;57664;51.436;5.980;2024-01-11T05:19:09;33.85;32.70;34.86;;
67318;Laerm;57664;51.436;5.980;2024-01-11T05:19:27;33.83;32.81;34.98;;
67318;Laerm;57664;51.436;5.980;2024-01-11T05:19:39;33.81;32.89;34.77;;
67318;Laerm;57664;51.436;5.980;2024-01-11T05:19:50;33.84;32.88;34.69;;
67318;Laerm;57664;51.436;5.980;2024-01-11T05:20:03;33.84;32.80;34.77;;
67318;Laerm;57664;51.436;5.980;2024-01-11T05:20:24;33.83;32.76;34.92;;
67318;Laerm;57664;51.436;5.980;2024-01-11T05:20:42;33.82;32.79;34.90;;
67318;Laerm;57664;51.436;5.980;2024-01-11T05:20:57;33.83;32.63;34.88;;
67318;Laerm;57664;51.436;5.980;2024-01-11T05:21:11;33.80;32.58;35.22;;
67318;Laerm;57664;51.436;5.980;2024-01-11T05:21:25;33.84;32.52;34.76;;
67318;Laerm;57664;51.436;5.980;2024-01-11T05:21:36;33.82;32.90;34.84;;
67318;Laerm;57664;51.436;5.980;2024-01-11T05:21:50;33.82;32.91;34.72;;
67318;Laerm;57664;51.436;5.980;2024-01-11T05:22:37;33.84;32.59;34.81;;
67318;Laerm;57664;51.436;5.980;2024-01-11T05:23:01;34.02;32.42;35.46;;
67318;Laerm;57664;51.436;5.980;2024-01-11T05:23:13;33.95;32.91;34.91;;
67318;Laerm;57664;51.436;5.980;2024-01-11T05:23:23;33.96;32.78;35.04;;
67318;Laerm;57664;51.436;5.980;2024-01-11T05:23:38;37.89;33.10;43.35;;
67318;Laerm;57664;51.436;5.980;2024-01-11T05:23:50;39.99;37.28;43.65;;
67318;Laerm;57664;51.436;5.980;2024-01-11T05:24:01;38.95;33.27;44.91;;
67318;Laerm;57664;51.436;5.980;2024-01-11T05:24:17;33.83;32.62;35.08;;
67318;Laerm;57664;51.436;5.980;2024-01-11T05:24:28;33.82;32.82;35.10;;
67318;Laerm;57664;51.436;5.980;2024-01-11T05:24:40;33.79;32.45;34.87;;
67318;Laerm;57664;51.436;5.980;2024-01-11T05:24:51;33.79;32.82;34.84;;
67318;Laerm;57664;51.436;5.980;2024-01-11T05:25:03;33.83;32.89;35.03;;
67318;Laerm;57664;51.436;5.980;2024-01-11T05:25:22;33.76;32.57;34.71;;
67318;Laerm;57664;51.436;5.980;2024-01-11T05:25:33;33.79;32.77;34.78;;
67318;Laerm;57664;51.436;5.980;2024-01-11T05:25:46;33.81;32.66;35.19;;
67318;Laerm;57664;51.436;5.980;2024-01-11T05:25:58;33.80;32.55;34.81;;
67318;Laerm;57664;51.436;5.980;2024-01-11T05:26:13;33.82;32.76;38.18;;
67318;Laerm;57664;51.436;5.980;2024-01-11T05:26:23;34.82;32.69;52.99;;
67318;Laerm;57664;51.436;5.980;2024-01-11T05:26:37;38.74;32.78;62.56;;
67318;Laerm;57664;51.436;5.980;2024-01-11T05:26:48;33.87;32.84;34.97;;
67318;Laerm;57664;51.436;5.980;2024-01-11T05:27:04;37.80;32.84;61.80;;
67318;Laerm;57664;51.436;5.980;2024-01-11T05:27:18;36.89;32.90;59.74;;
67318;Laerm;57664;51.436;5.980;2024-01-11T05:27:29;39.85;32.91;62.26;;
67318;Laerm;57664;51.436;5.980;2024-01-11T05:28:03;33.90;32.61;34.94;;
67318;Laerm;57664;51.436;5.980;2024-01-11T05:28:21;36.60;32.53;63.02;;
67318;Laerm;57664;51.436;5.980;2024-01-11T05:28:36;38.05;32.88;62.04;;
67318;Laerm;57664;51.436;5.980;2024-01-11T05:28:58;33.84;32.72;34.90;;
67318;Laerm;57664;51.436;5.980;2024-01-11T05:29:12;33.87;32.90;34.75;;
67318;Laerm;57664;51.436;5.980;2024-01-11T05:29:34;34.61;32.83;54.57;;
67318;Laerm;57664;51.436;5.980;2024-01-11T05:29:45;33.88;32.28;34.69;;
67318;Laerm;57664;51.436;5.980;2024-01-11T05:29:55;33.84;32.85;35.01;;
67318;Laerm;57664;51.436;5.980;2024-01-11T05:30:06;33.96;33.01;35.34;;
67318;Laerm;57664;51.436;5.980;2024-01-11T05:30:27;34.05;32.63;44.99;;
67318;Laerm;57664;51.436;5.980;2024-01-11T05:30:40;33.82;32.65;34.75;;
67318;Laerm;57664;51.436;5.980;2024-01-11T05:30:54;33.84;32.79;34.87;;
67318;Laerm;57664;51.436;5.980;2024-01-11T05:31:15;33.87;32.78;34.94;;
67318;Laerm;57664;51.436;5.980;2024-01-11T05:31:31;33.83;32.53;34.79;;
67318;Laerm;57664;51.436;5.980;2024-01-11T05:31:42;33.80;32.85;34.44;;
67318;Laerm;57664;51.436;5.980;2024-01-11T05:31:56;33.81;32.88;34.97;;
67318;Laerm;57664;51.436;5.980;2024-01-11T05:32:10;33.83;32.77;34.87;;
67318;Laerm;57664;51.436;5.980;2024-01-11T05:32:27;33.81;32.75;34.74;;
67318;Laerm;57664;51.436;5.980;2024-01-11T05:32:37;33.78;32.79;34.75;;
67318;Laerm;57664;51.436;5.980;2024-01-11T05:32:49;33.80;32.86;34.70;;
67318;Laerm;57664;51.436;5.980;2024-01-11T05:33:02;33.83;32.69;34.86;;
67318;Laerm;57664;51.436;5.980;2024-01-11T05:33:14;33.77;32.63;34.81;;
67318;Laerm;57664;51.436;5.980;2024-01-11T05:33:24;33.79;32.75;34.65;;
67318;Laerm;57664;51.436;5.980;2024-01-11T05:33:41;33.81;32.73;34.92;;
67318;Laerm;57664;51.436;5.980;2024-01-11T05:33:56;33.77;32.61;34.83;;
67318;Laerm;57664;51.436;5.980;2024-01-11T05:34:07;33.76;32.34;34.63;;
67318;Laerm;57664;51.436;5.980;2024-01-11T05:34:19;33.79;32.57;34.97;;